Wildwood, NJ

3:22 AM EDT on October 01, 2014 (GMT -0400)
Cape May County | Change Station
CLOSE
Current Station
Airport
Location: Wildwood,
Elevation: 23 ft
Nearby Weather Stations

Elev 23 ft 39.01 °N, 74.91 °W | Updated 1 hour ago

Mostly Cloudy
Mostly Cloudy
64 °F
Feels Like 64 °F
N
0
Wind Variable Wind from North

Today
High -- | Low -- °F
--% Chance of Precip.
Yesterday
High -- | Low -- °F
Precip. -- in
6:55 AM 6:41 PM
Waxing Crescent, 44% visible
Pressure 29.96 in
Visibility 5.0 miles
Clouds Mostly Cloudy 4600 ft
Overcast 6000 ft
Dew Point 61 °F
Humidity 88%
Rainfall 0.02 in
Snow Depth Not available.
UV 0 out of 12
Pollen 3.30 out of 12
Air Quality Not available.
Flu Activity Not available.
METAR KWWD 300555Z AUTO 00000KT 5SM BKN046 OVC060 18/16 A2996 RMK AO1 P0002 60005 10200 20180 54000

More Conditions Fewer Conditions

Pressure 29.96 in
Visibility 5.0 miles
Clouds Mostly Cloudy 4600 ft
Overcast 6000 ft
Dew Point 61 °F
Humidity 88%
Rainfall 0.02 in
Snow Depth Not available.
UV 0 out of 12
Pollen 3.30 out of 12
Air Quality Not available.
Flu Activity Not available.
METAR KWWD 300555Z AUTO 00000KT 5SM BKN046 OVC060 18/16 A2996 RMK AO1 P0002 60005 10200 20180 54000

More Conditions Fewer Conditions

10-Day Weather Forecast

Almanac

Astronomy

Oct. 01, 2014 Rise Set
Actual Time 6:55 AM EDT 6:41 PM EDT
Civil Twilight 6:28 AM EDT 7:08 PM EDT
Nautical Twilight 5:57 AM EDT 7:39 PM EDT
Astronomical Twilight 5:26 AM EDT 8:10 PM EDT
Moon 1:51 PM EDT No Moon Set
Length of Visible Light 12h 39m
Length of Day
11h 46m
Tomorrow will be 2m 31s shorter.
Waxing Crescent, 44% of the Moon is Illuminated
Today
Waxing Crescent
Oct 1
First Quarter
Oct 8
Full
Oct 15
Last Quarter
Oct 23
New

Today's Extremes

State Highs State Lows

Community

WunderPhotos

Upload Photos

1,757,898 photos uploaded!

Nearby

Snow Depth

Station Depth Elevation
No new snow has been reported.

Earthquake Activity

City Distance Mag. Time & Date
No recent earthquake activity has been reported nearby.
Minimum magnitude displayed is 2.5.

Coastal Water Temperatures

Place Temperature
Cape May, NJ 73.9 °F
Atlantic City, NJ 70.0 °F
Lewes, DE 70.0 °F

Nearby Weather Stations